Airfield :
LOGIN :

Register | Disclaimer

   EN    FR    IT 

 










Legend :    VFR   Marginal VFR   IFR   Intensive IFR   Very Intensive IFR
Visi :
Ceiling :
>= 8 km
>= 3000ft
5 to 8 km
1000 to 3000 ft
1500m to 5 km
500 to 1000 ft
800 to 1500m
200 to 500 ft
< 800m
< 200 ft
Symbols :   Thunderstorms  Fog  Heavy snow  Heavy precipitations  Wind > 20 kt
SIGMETs :     Misc.  Thunderstorms  Icing  Turbulence  Mountain Waves  Volcanic Ashes






- Airport Elevation : 359 ft
- IATA code : BVA


LFOB - Beauvais

CURRENT METAR :
  • 291000Z AUTO 16004KT 120V250 9999 FEW018 14/08 Q1002 NOSIG

EXPIRED METARs :
  • 290930Z AUTO VRB01KT 9999 FEW009 13/09 Q1002 NOSIG
  • 290900Z AUTO VRB02KT 9999 FEW009 12/10 Q1002 NOSIG
  • 290830Z AUTO 00000KT CAVOK 11/09 Q1001 NOSIG
  • 290800Z AUTO VRB01KT 9999 FEW047 10/09 Q1001 NOSIG

TAF TAF LFOB
Valid from the 29 at 06:00 until the 30 at 06:00 UTC


290500Z 2906/3006 VRB03KT CAVOK
PROB30
TEMPO 2913/2917 4000 SHRA BKN025TCU
ATIS : +33 3 44 11 49 28



MET'MAP, your aeronautical weather chart ! - Copyright ORBIFLY December 2007 - Disclaimer

ORBIFLY MET'MAP TEAM :

Programming & Development : Alexandra Zaïnal
Original concept : Baudouin d'Aumeries
Technical & hardware support : Manuel Goepfert
Assistance : Marc-Olivier Méhu




SOURCES & CREDITS :

   NOAA